sensor_id;sensor_type;location;lat;lon;timestamp;P1;durP1;ratioP1;P2;durP2;ratioP2
31674;SDS011;18276;45.520;11.018;2023-04-29T00:01:23;27.02;;;14.02;;
31674;SDS011;18276;45.520;11.018;2023-04-29T00:03:51;27.02;;;14.35;;
31674;SDS011;18276;45.520;11.018;2023-04-29T00:06:19;25.55;;;14.05;;
31674;SDS011;18276;45.520;11.018;2023-04-29T00:08:46;26.38;;;15.10;;
31674;SDS011;18276;45.520;11.018;2023-04-29T00:11:13;25.75;;;13.75;;
31674;SDS011;18276;45.520;11.018;2023-04-29T00:13:40;29.13;;;14.40;;
31674;SDS011;18276;45.520;11.018;2023-04-29T00:16:07;21.88;;;12.93;;
31674;SDS011;18276;45.520;11.018;2023-04-29T00:18:38;28.10;;;13.45;;
31674;SDS011;18276;45.520;11.018;2023-04-29T00:21:05;25.15;;;13.68;;
31674;SDS011;18276;45.520;11.018;2023-04-29T00:23:32;23.83;;;13.52;;
31674;SDS011;18276;45.520;11.018;2023-04-29T00:25:59;26.25;;;13.30;;
31674;SDS011;18276;45.520;11.018;2023-04-29T00:28:26;26.23;;;14.07;;
31674;SDS011;18276;45.520;11.018;2023-04-29T00:30:53;24.73;;;12.38;;
31674;SDS011;18276;45.520;11.018;2023-04-29T00:33:21;22.52;;;12.77;;
31674;SDS011;18276;45.520;11.018;2023-04-29T00:35:48;26.17;;;13.57;;
31674;SDS011;18276;45.520;11.018;2023-04-29T00:38:16;28.52;;;13.93;;
31674;SDS011;18276;45.520;11.018;2023-04-29T00:40:43;25.52;;;13.85;;
31674;SDS011;18276;45.520;11.018;2023-04-29T00:43:10;25.27;;;12.50;;
31674;SDS011;18276;45.520;11.018;2023-04-29T00:45:38;24.15;;;13.70;;
31674;SDS011;18276;45.520;11.018;2023-04-29T00:48:05;24.50;;;13.50;;
31674;SDS011;18276;45.520;11.018;2023-04-29T00:50:33;27.92;;;13.57;;
31674;SDS011;18276;45.520;11.018;2023-04-29T00:53:02;24.42;;;13.23;;
31674;SDS011;18276;45.520;11.018;2023-04-29T00:55:29;26.30;;;13.00;;
31674;SDS011;18276;45.520;11.018;2023-04-29T00:57:59;27.20;;;13.73;;
31674;SDS011;18276;45.520;11.018;2023-04-29T01:00:27;27.67;;;15.05;;
31674;SDS011;18276;45.520;11.018;2023-04-29T01:02:55;26.38;;;14.05;;
31674;SDS011;18276;45.520;11.018;2023-04-29T01:05:25;28.27;;;14.65;;
31674;SDS011;18276;45.520;11.018;2023-04-29T01:07:57;22.73;;;13.68;;
31674;SDS011;18276;45.520;11.018;2023-04-29T01:11:06;25.38;;;14.32;;
31674;SDS011;18276;45.520;11.018;2023-04-29T01:16:29;27.02;;;14.40;;
31674;SDS011;18276;45.520;11.018;2023-04-29T01:21:58;23.80;;;13.88;;
31674;SDS011;18276;45.520;11.018;2023-04-29T01:24:25;21.73;;;12.57;;
31674;SDS011;18276;45.520;11.018;2023-04-29T01:26:56;24.98;;;12.98;;
31674;SDS011;18276;45.520;11.018;2023-04-29T01:29:44;26.73;;;13.35;;
31674;SDS011;18276;45.520;11.018;2023-04-29T01:33:05;25.48;;;13.82;;
31674;SDS011;18276;45.520;11.018;2023-04-29T01:37:48;25.15;;;13.25;;
31674;SDS011;18276;45.520;11.018;2023-04-29T01:40:29;26.58;;;12.85;;
31674;SDS011;18276;45.520;11.018;2023-04-29T01:43:13;23.85;;;12.65;;
31674;SDS011;18276;45.520;11.018;2023-04-29T01:45:45;22.75;;;12.82;;
31674;SDS011;18276;45.520;11.018;2023-04-29T01:48:14;21.38;;;12.02;;
31674;SDS011;18276;45.520;11.018;2023-04-29T01:50:42;22.27;;;13.38;;
31674;SDS011;18276;45.520;11.018;2023-04-29T01:53:11;23.75;;;13.90;;
31674;SDS011;18276;45.520;11.018;2023-04-29T01:55:38;23.00;;;13.00;;
31674;SDS011;18276;45.520;11.018;2023-04-29T01:58:20;25.92;;;13.52;;
31674;SDS011;18276;45.520;11.018;2023-04-29T02:01:07;22.83;;;13.30;;
31674;SDS011;18276;45.520;11.018;2023-04-29T02:03:36;24.63;;;13.75;;
31674;SDS011;18276;45.520;11.018;2023-04-29T02:06:06;23.90;;;12.82;;
31674;SDS011;18276;45.520;11.018;2023-04-29T02:08:34;24.10;;;12.95;;
31674;SDS011;18276;45.520;11.018;2023-04-29T02:11:01;23.05;;;12.45;;
31674;SDS011;18276;45.520;11.018;2023-04-29T02:13:34;21.70;;;12.18;;
31674;SDS011;18276;45.520;11.018;2023-04-29T02:16:06;20.50;;;12.57;;
31674;SDS011;18276;45.520;11.018;2023-04-29T02:18:41;20.13;;;11.38;;
31674;SDS011;18276;45.520;11.018;2023-04-29T02:21:09;23.08;;;12.15;;
31674;SDS011;18276;45.520;11.018;2023-04-29T02:23:37;19.33;;;12.13;;
31674;SDS011;18276;45.520;11.018;2023-04-29T02:26:04;24.15;;;13.20;;
31674;SDS011;18276;45.520;11.018;2023-04-29T02:28:32;24.58;;;12.75;;
31674;SDS011;18276;45.520;11.018;2023-04-29T02:31:00;22.00;;;11.65;;
31674;SDS011;18276;45.520;11.018;2023-04-29T02:33:28;19.80;;;12.13;;
31674;SDS011;18276;45.520;11.018;2023-04-29T02:35:56;22.67;;;11.07;;
31674;SDS011;18276;45.520;11.018;2023-04-29T02:38:22;22.60;;;11.85;;
31674;SDS011;18276;45.520;11.018;2023-04-29T02:40:49;20.73;;;11.32;;
31674;SDS011;18276;45.520;11.018;2023-04-29T02:43:17;25.60;;;11.98;;
31674;SDS011;18276;45.520;11.018;2023-04-29T02:45:44;21.95;;;11.65;;
31674;SDS011;18276;45.520;11.018;2023-04-29T02:48:11;24.20;;;11.55;;
31674;SDS011;18276;45.520;11.018;2023-04-29T02:50:39;19.50;;;12.57;;
31674;SDS011;18276;45.520;11.018;2023-04-29T02:53:06;22.60;;;12.77;;
31674;SDS011;18276;45.520;11.018;2023-04-29T02:55:33;22.70;;;11.88;;
31674;SDS011;18276;45.520;11.018;2023-04-29T02:58:05;19.10;;;11.85;;
31674;SDS011;18276;45.520;11.018;2023-04-29T03:00:32;27.00;;;11.85;;
31674;SDS011;18276;45.520;11.018;2023-04-29T03:02:59;29.65;;;12.65;;
31674;SDS011;18276;45.520;11.018;2023-04-29T03:05:27;23.10;;;12.73;;
31674;SDS011;18276;45.520;11.018;2023-04-29T03:07:54;21.25;;;12.27;;
31674;SDS011;18276;45.520;11.018;2023-04-29T03:10:21;22.95;;;12.27;;
31674;SDS011;18276;45.520;11.018;2023-04-29T03:12:48;20.63;;;12.63;;
31674;SDS011;18276;45.520;11.018;2023-04-29T03:15:15;20.90;;;11.70;;
31674;SDS011;18276;45.520;11.018;2023-04-29T03:17:43;21.20;;;12.68;;
31674;SDS011;18276;45.520;11.018;2023-04-29T03:20:12;21.45;;;12.48;;
31674;SDS011;18276;45.520;11.018;2023-04-29T03:22:39;23.08;;;12.55;;
31674;SDS011;18276;45.520;11.018;2023-04-29T03:25:07;20.58;;;11.63;;
31674;SDS011;18276;45.520;11.018;2023-04-29T03:27:37;21.85;;;12.77;;
31674;SDS011;18276;45.520;11.018;2023-04-29T03:30:05;23.73;;;13.07;;
31674;SDS011;18276;45.520;11.018;2023-04-29T03:32:37;23.20;;;12.23;;
31674;SDS011;18276;45.520;11.018;2023-04-29T03:35:04;26.13;;;12.55;;
31674;SDS011;18276;45.520;11.018;2023-04-29T03:37:38;27.65;;;13.55;;
31674;SDS011;18276;45.520;11.018;2023-04-29T03:40:20;20.10;;;12.25;;
31674;SDS011;18276;45.520;11.018;2023-04-29T03:42:48;24.27;;;13.13;;
31674;SDS011;18276;45.520;11.018;2023-04-29T03:45:16;22.25;;;12.52;;
31674;SDS011;18276;45.520;11.018;2023-04-29T03:47:44;28.85;;;13.98;;
31674;SDS011;18276;45.520;11.018;2023-04-29T03:50:11;25.50;;;13.23;;
31674;SDS011;18276;45.520;11.018;2023-04-29T03:52:39;22.63;;;13.37;;
31674;SDS011;18276;45.520;11.018;2023-04-29T03:57:40;22.42;;;12.93;;
31674;SDS011;18276;45.520;11.018;2023-04-29T04:00:09;22.38;;;13.30;;
31674;SDS011;18276;45.520;11.018;2023-04-29T04:02:43;29.52;;;14.48;;
31674;SDS011;18276;45.520;11.018;2023-04-29T04:05:11;26.80;;;13.95;;
31674;SDS011;18276;45.520;11.018;2023-04-29T04:07:42;25.02;;;13.70;;
31674;SDS011;18276;45.520;11.018;2023-04-29T04:10:29;24.92;;;12.73;;
31674;SDS011;18276;45.520;11.018;2023-04-29T04:12:58;20.15;;;13.15;;
31674;SDS011;18276;45.520;11.018;2023-04-29T04:15:25;24.58;;;13.25;;
31674;SDS011;18276;45.520;11.018;2023-04-29T04:17:52;23.88;;;13.63;;
31674;SDS011;18276;45.520;11.018;2023-04-29T04:20:19;22.50;;;12.43;;
31674;SDS011;18276;45.520;11.018;2023-04-29T04:22:48;24.95;;;13.38;;
31674;SDS011;18276;45.520;11.018;2023-04-29T04:25:19;27.77;;;13.75;;
31674;SDS011;18276;45.520;11.018;2023-04-29T04:27:47;22.60;;;13.02;;
31674;SDS011;18276;45.520;11.018;2023-04-29T04:30:25;30.63;;;14.85;;
31674;SDS011;18276;45.520;11.018;2023-04-29T04:32:53;24.98;;;14.07;;
31674;SDS011;18276;45.520;11.018;2023-04-29T04:35:20;22.85;;;13.68;;
31674;SDS011;18276;45.520;11.018;2023-04-29T04:37:47;24.20;;;14.25;;
31674;SDS011;18276;45.520;11.018;2023-04-29T04:40:15;24.05;;;14.23;;
31674;SDS011;18276;45.520;11.018;2023-04-29T04:43:15;22.58;;;13.38;;
31674;SDS011;18276;45.520;11.018;2023-04-29T04:45:42;21.85;;;14.07;;
31674;SDS011;18276;45.520;11.018;2023-04-29T04:48:10;25.65;;;13.45;;
31674;SDS011;18276;45.520;11.018;2023-04-29T04:50:38;24.30;;;14.27;;
31674;SDS011;18276;45.520;11.018;2023-04-29T04:53:05;24.70;;;14.18;;
31674;SDS011;18276;45.520;11.018;2023-04-29T04:56:01;27.10;;;14.13;;
31674;SDS011;18276;45.520;11.018;2023-04-29T04:58:30;27.23;;;13.25;;
31674;SDS011;18276;45.520;11.018;2023-04-29T05:01:01;26.33;;;14.45;;
31674;SDS011;18276;45.520;11.018;2023-04-29T05:03:28;29.10;;;14.85;;
31674;SDS011;18276;45.520;11.018;2023-04-29T05:05:58;24.77;;;14.45;;
31674;SDS011;18276;45.520;11.018;2023-04-29T05:08:26;26.45;;;13.45;;
31674;SDS011;18276;45.520;11.018;2023-04-29T05:10:56;26.45;;;13.93;;
31674;SDS011;18276;45.520;11.018;2023-04-29T05:13:24;24.08;;;14.38;;
31674;SDS011;18276;45.520;11.018;2023-04-29T05:15:51;28.07;;;15.47;;
31674;SDS011;18276;45.520;11.018;2023-04-29T05:18:22;28.20;;;15.00;;
31674;SDS011;18276;45.520;11.018;2023-04-29T05:20:50;24.08;;;13.98;;
31674;SDS011;18276;45.520;11.018;2023-04-29T05:23:17;25.95;;;15.00;;
31674;SDS011;18276;45.520;11.018;2023-04-29T05:25:45;30.42;;;14.63;;
31674;SDS011;18276;45.520;11.018;2023-04-29T05:28:15;19.92;;;12.95;;
31674;SDS011;18276;45.520;11.018;2023-04-29T05:30:42;24.30;;;14.02;;
31674;SDS011;18276;45.520;11.018;2023-04-29T05:33:10;24.40;;;14.07;;
31674;SDS011;18276;45.520;11.018;2023-04-29T05:35:38;20.55;;;13.25;;
31674;SDS011;18276;45.520;11.018;2023-04-29T05:38:05;23.83;;;14.05;;
31674;SDS011;18276;45.520;11.018;2023-04-29T05:40:37;23.05;;;13.98;;
31674;SDS011;18276;45.520;11.018;2023-04-29T05:43:27;20.67;;;13.13;;
31674;SDS011;18276;45.520;11.018;2023-04-29T05:45:55;24.98;;;14.20;;
31674;SDS011;18276;45.520;11.018;2023-04-29T05:48:23;20.73;;;13.10;;
31674;SDS011;18276;45.520;11.018;2023-04-29T05:50:50;21.45;;;13.85;;
31674;SDS011;18276;45.520;11.018;2023-04-29T05:53:19;22.38;;;13.13;;
31674;SDS011;18276;45.520;11.018;2023-04-29T05:55:47;20.85;;;12.70;;
31674;SDS011;18276;45.520;11.018;2023-04-29T05:58:18;24.02;;;13.50;;
31674;SDS011;18276;45.520;11.018;2023-04-29T06:00:45;19.33;;;13.05;;
31674;SDS011;18276;45.520;11.018;2023-04-29T06:03:19;31.98;;;18.05;;
31674;SDS011;18276;45.520;11.018;2023-04-29T06:05:53;24.02;;;14.18;;
31674;SDS011;18276;45.520;11.018;2023-04-29T06:08:51;21.55;;;12.80;;
31674;SDS011;18276;45.520;11.018;2023-04-29T06:11:23;23.65;;;13.10;;
31674;SDS011;18276;45.520;11.018;2023-04-29T06:13:50;25.05;;;13.38;;
31674;SDS011;18276;45.520;11.018;2023-04-29T06:16:18;23.75;;;13.77;;
31674;SDS011;18276;45.520;11.018;2023-04-29T06:18:45;28.77;;;14.15;;
31674;SDS011;18276;45.520;11.018;2023-04-29T06:21:13;23.98;;;13.82;;
31674;SDS011;18276;45.520;11.018;2023-04-29T06:23:41;22.95;;;13.93;;
31674;SDS011;18276;45.520;11.018;2023-04-29T06:26:14;25.08;;;13.95;;
31674;SDS011;18276;45.520;11.018;2023-04-29T06:28:41;27.95;;;14.90;;
31674;SDS011;18276;45.520;11.018;2023-04-29T06:31:09;22.63;;;13.02;;
31674;SDS011;18276;45.520;11.018;2023-04-29T06:33:36;28.02;;;15.02;;
31674;SDS011;18276;45.520;11.018;2023-04-29T06:36:04;26.73;;;15.00;;
31674;SDS011;18276;45.520;11.018;2023-04-29T06:38:50;28.90;;;15.25;;
31674;SDS011;18276;45.520;11.018;2023-04-29T06:41:35;26.83;;;14.20;;
31674;SDS011;18276;45.520;11.018;2023-04-29T06:44:31;30.08;;;15.20;;
31674;SDS011;18276;45.520;11.018;2023-04-29T06:47:17;28.85;;;15.15;;
31674;SDS011;18276;45.520;11.018;2023-04-29T06:50:11;31.27;;;17.45;;
31674;SDS011;18276;45.520;11.018;2023-04-29T06:52:38;23.95;;;16.48;;
31674;SDS011;18276;45.520;11.018;2023-04-29T06:55:05;26.35;;;15.90;;
31674;SDS011;18276;45.520;11.018;2023-04-29T06:57:32;36.38;;;20.15;;
31674;SDS011;18276;45.520;11.018;2023-04-29T07:00:00;38.92;;;18.92;;
31674;SDS011;18276;45.520;11.018;2023-04-29T07:02:27;36.92;;;20.65;;
31674;SDS011;18276;45.520;11.018;2023-04-29T07:04:54;34.40;;;19.70;;
31674;SDS011;18276;45.520;11.018;2023-04-29T07:07:21;36.63;;;19.45;;
31674;SDS011;18276;45.520;11.018;2023-04-29T07:09:49;36.90;;;19.80;;
31674;SDS011;18276;45.520;11.018;2023-04-29T07:12:19;34.83;;;18.65;;
31674;SDS011;18276;45.520;11.018;2023-04-29T07:14:46;30.95;;;19.45;;
31674;SDS011;18276;45.520;11.018;2023-04-29T07:17:13;32.25;;;19.55;;
31674;SDS011;18276;45.520;11.018;2023-04-29T07:19:40;34.57;;;18.87;;
31674;SDS011;18276;45.520;11.018;2023-04-29T07:22:09;30.85;;;18.10;;
31674;SDS011;18276;45.520;11.018;2023-04-29T07:24:36;30.95;;;18.30;;
31674;SDS011;18276;45.520;11.018;2023-04-29T07:27:03;30.63;;;18.83;;
31674;SDS011;18276;45.520;11.018;2023-04-29T07:29:30;34.17;;;18.80;;
31674;SDS011;18276;45.520;11.018;2023-04-29T07:31:57;31.42;;;18.38;;
31674;SDS011;18276;45.520;11.018;2023-04-29T07:34:25;31.73;;;20.08;;
31674;SDS011;18276;45.520;11.018;2023-04-29T07:36:52;29.90;;;18.70;;
31674;SDS011;18276;45.520;11.018;2023-04-29T07:39:19;38.72;;;20.13;;
31674;SDS011;18276;45.520;11.018;2023-04-29T07:41:52;32.58;;;19.02;;
31674;SDS011;18276;45.520;11.018;2023-04-29T07:44:19;29.10;;;18.65;;
31674;SDS011;18276;45.520;11.018;2023-04-29T07:46:47;29.85;;;18.10;;
31674;SDS011;18276;45.520;11.018;2023-04-29T07:49:15;29.80;;;18.90;;
31674;SDS011;18276;45.520;11.018;2023-04-29T07:51:42;30.65;;;18.58;;
31674;SDS011;18276;45.520;11.018;2023-04-29T07:54:09;33.30;;;19.33;;
31674;SDS011;18276;45.520;11.018;2023-04-29T07:56:36;33.22;;;19.60;;
31674;SDS011;18276;45.520;11.018;2023-04-29T07:59:05;27.67;;;17.75;;
31674;SDS011;18276;45.520;11.018;2023-04-29T08:01:32;29.85;;;19.95;;
31674;SDS011;18276;45.520;11.018;2023-04-29T08:03:59;29.75;;;18.13;;
31674;SDS011;18276;45.520;11.018;2023-04-29T08:06:27;30.73;;;18.20;;
31674;SDS011;18276;45.520;11.018;2023-04-29T08:08:54;27.33;;;16.92;;
31674;SDS011;18276;45.520;11.018;2023-04-29T08:11:21;27.05;;;17.15;;
31674;SDS011;18276;45.520;11.018;2023-04-29T08:13:49;24.33;;;16.30;;
31674;SDS011;18276;45.520;11.018;2023-04-29T08:16:17;29.73;;;17.88;;
31674;SDS011;18276;45.520;11.018;2023-04-29T08:18:44;25.27;;;16.98;;
31674;SDS011;18276;45.520;11.018;2023-04-29T08:21:11;26.08;;;15.07;;
31674;SDS011;18276;45.520;11.018;2023-04-29T08:23:38;27.60;;;15.43;;
31674;SDS011;18276;45.520;11.018;2023-04-29T08:26:06;21.55;;;13.30;;
31674;SDS011;18276;45.520;11.018;2023-04-29T08:28:34;28.20;;;13.73;;
31674;SDS011;18276;45.520;11.018;2023-04-29T08:31:01;21.45;;;11.07;;
31674;SDS011;18276;45.520;11.018;2023-04-29T08:33:28;23.17;;;15.15;;
31674;SDS011;18276;45.520;11.018;2023-04-29T08:35:58;22.63;;;14.07;;
31674;SDS011;18276;45.520;11.018;2023-04-29T08:43:21;25.02;;;15.65;;
31674;SDS011;18276;45.520;11.018;2023-04-29T08:45:49;24.08;;;15.25;;
31674;SDS011;18276;45.520;11.018;2023-04-29T18:14:58;19.83;;;15.00;;
31674;SDS011;18276;45.520;11.018;2023-04-29T18:17:26;20.25;;;14.63;;
31674;SDS011;18276;45.520;11.018;2023-04-29T18:19:53;22.13;;;14.30;;
31674;SDS011;18276;45.520;11.018;2023-04-29T18:22:20;23.58;;;16.50;;
31674;SDS011;18276;45.520;11.018;2023-04-29T18:24:47;22.92;;;15.55;;
31674;SDS011;18276;45.520;11.018;2023-04-29T18:27:15;27.20;;;16.70;;
31674;SDS011;18276;45.520;11.018;2023-04-29T18:29:43;28.38;;;17.73;;
31674;SDS011;18276;45.520;11.018;2023-04-29T18:32:10;27.52;;;17.25;;
31674;SDS011;18276;45.520;11.018;2023-04-29T18:34:37;24.55;;;15.15;;
31674;SDS011;18276;45.520;11.018;2023-04-29T18:37:04;30.25;;;17.65;;
31674;SDS011;18276;45.520;11.018;2023-04-29T18:39:31;22.20;;;15.00;;
31674;SDS011;18276;45.520;11.018;2023-04-29T18:41:59;24.60;;;15.18;;
31674;SDS011;18276;45.520;11.018;2023-04-29T18:44:26;23.13;;;15.57;;
31674;SDS011;18276;45.520;11.018;2023-04-29T18:46:54;24.65;;;15.57;;
31674;SDS011;18276;45.520;11.018;2023-04-29T18:49:21;29.23;;;18.38;;
31674;SDS011;18276;45.520;11.018;2023-04-29T18:51:48;28.77;;;18.08;;
31674;SDS011;18276;45.520;11.018;2023-04-29T18:54:18;28.98;;;17.80;;
31674;SDS011;18276;45.520;11.018;2023-04-29T18:56:46;23.88;;;16.83;;
31674;SDS011;18276;45.520;11.018;2023-04-29T18:59:14;26.92;;;15.80;;
31674;SDS011;18276;45.520;11.018;2023-04-29T19:01:45;24.33;;;16.52;;
31674;SDS011;18276;45.520;11.018;2023-04-29T19:04:13;31.02;;;17.58;;
31674;SDS011;18276;45.520;11.018;2023-04-29T19:06:41;28.85;;;16.55;;
31674;SDS011;18276;45.520;11.018;2023-04-29T19:09:09;26.63;;;17.15;;
31674;SDS011;18276;45.520;11.018;2023-04-29T19:11:36;26.45;;;16.65;;
31674;SDS011;18276;45.520;11.018;2023-04-29T19:14:03;27.30;;;18.00;;
31674;SDS011;18276;45.520;11.018;2023-04-29T19:16:31;26.52;;;17.80;;
31674;SDS011;18276;45.520;11.018;2023-04-29T19:19:02;28.42;;;17.98;;
31674;SDS011;18276;45.520;11.018;2023-04-29T19:21:30;27.60;;;18.75;;
31674;SDS011;18276;45.520;11.018;2023-04-29T19:24:01;27.95;;;18.00;;
31674;SDS011;18276;45.520;11.018;2023-04-29T19:26:28;27.15;;;19.20;;
31674;SDS011;18276;45.520;11.018;2023-04-29T19:28:59;31.75;;;18.00;;
31674;SDS011;18276;45.520;11.018;2023-04-29T19:31:27;26.25;;;18.67;;
31674;SDS011;18276;45.520;11.018;2023-04-29T19:33:54;39.85;;;19.23;;
31674;SDS011;18276;45.520;11.018;2023-04-29T19:36:21;28.48;;;18.55;;
31674;SDS011;18276;45.520;11.018;2023-04-29T19:38:48;29.48;;;20.02;;
31674;SDS011;18276;45.520;11.018;2023-04-29T19:41:16;29.33;;;19.58;;
31674;SDS011;18276;45.520;11.018;2023-04-29T19:43:43;31.75;;;20.70;;
31674;SDS011;18276;45.520;11.018;2023-04-29T19:46:10;30.52;;;19.15;;
31674;SDS011;18276;45.520;11.018;2023-04-29T19:48:38;32.35;;;19.50;;
31674;SDS011;18276;45.520;11.018;2023-04-29T19:51:06;31.13;;;19.55;;
31674;SDS011;18276;45.520;11.018;2023-04-29T19:53:36;28.88;;;19.23;;
31674;SDS011;18276;45.520;11.018;2023-04-29T19:56:04;34.47;;;20.85;;
31674;SDS011;18276;45.520;11.018;2023-04-29T19:58:31;31.90;;;20.25;;
31674;SDS011;18276;45.520;11.018;2023-04-29T20:00:58;35.35;;;20.30;;
31674;SDS011;18276;45.520;11.018;2023-04-29T20:03:26;28.55;;;19.70;;
31674;SDS011;18276;45.520;11.018;2023-04-29T20:05:53;30.98;;;20.55;;
31674;SDS011;18276;45.520;11.018;2023-04-29T20:08:20;29.00;;;19.98;;
31674;SDS011;18276;45.520;11.018;2023-04-29T20:10:47;30.60;;;20.98;;
31674;SDS011;18276;45.520;11.018;2023-04-29T20:13:14;27.95;;;19.33;;
31674;SDS011;18276;45.520;11.018;2023-04-29T20:15:42;32.70;;;21.10;;
31674;SDS011;18276;45.520;11.018;2023-04-29T20:18:09;31.67;;;19.77;;
31674;SDS011;18276;45.520;11.018;2023-04-29T20:20:36;32.58;;;20.25;;
31674;SDS011;18276;45.520;11.018;2023-04-29T20:23:03;30.50;;;20.20;;
31674;SDS011;18276;45.520;11.018;2023-04-29T20:25:31;29.33;;;20.20;;
31674;SDS011;18276;45.520;11.018;2023-04-29T20:27:58;31.13;;;20.95;;
31674;SDS011;18276;45.520;11.018;2023-04-29T20:30:25;35.80;;;21.05;;
31674;SDS011;18276;45.520;11.018;2023-04-29T20:32:52;36.20;;;20.42;;
31674;SDS011;18276;45.520;11.018;2023-04-29T20:35:19;33.83;;;21.55;;
31674;SDS011;18276;45.520;11.018;2023-04-29T20:37:46;34.30;;;21.85;;
31674;SDS011;18276;45.520;11.018;2023-04-29T20:40:13;34.22;;;21.45;;
31674;SDS011;18276;45.520;11.018;2023-04-29T20:42:40;33.30;;;21.50;;
31674;SDS011;18276;45.520;11.018;2023-04-29T20:45:07;32.42;;;20.95;;
31674;SDS011;18276;45.520;11.018;2023-04-29T20:47:36;32.97;;;21.85;;
31674;SDS011;18276;45.520;11.018;2023-04-29T20:50:04;38.03;;;22.23;;
31674;SDS011;18276;45.520;11.018;2023-04-29T20:52:32;37.60;;;21.60;;
31674;SDS011;18276;45.520;11.018;2023-04-29T20:54:59;37.35;;;22.65;;
31674;SDS011;18276;45.520;11.018;2023-04-29T20:57:26;37.13;;;22.67;;
31674;SDS011;18276;45.520;11.018;2023-04-29T20:59:54;31.40;;;21.42;;
31674;SDS011;18276;45.520;11.018;2023-04-29T21:02:22;36.83;;;22.08;;
31674;SDS011;18276;45.520;11.018;2023-04-29T21:04:49;32.97;;;21.98;;
31674;SDS011;18276;45.520;11.018;2023-04-29T21:07:17;32.25;;;21.55;;
31674;SDS011;18276;45.520;11.018;2023-04-29T21:09:44;36.28;;;23.33;;
31674;SDS011;18276;45.520;11.018;2023-04-29T21:12:11;38.40;;;23.40;;
31674;SDS011;18276;45.520;11.018;2023-04-29T21:14:40;36.60;;;22.85;;
31674;SDS011;18276;45.520;11.018;2023-04-29T21:17:08;37.90;;;22.50;;
31674;SDS011;18276;45.520;11.018;2023-04-29T21:19:35;32.10;;;21.55;;
31674;SDS011;18276;45.520;11.018;2023-04-29T21:22:03;35.10;;;22.05;;
31674;SDS011;18276;45.520;11.018;2023-04-29T21:24:30;37.50;;;23.35;;
31674;SDS011;18276;45.520;11.018;2023-04-29T21:26:57;38.15;;;23.65;;
31674;SDS011;18276;45.520;11.018;2023-04-29T21:29:24;30.60;;;21.20;;
31674;SDS011;18276;45.520;11.018;2023-04-29T21:31:51;32.55;;;21.50;;
31674;SDS011;18276;45.520;11.018;2023-04-29T21:34:19;37.50;;;23.35;;
31674;SDS011;18276;45.520;11.018;2023-04-29T21:36:51;36.67;;;23.45;;
31674;SDS011;18276;45.520;11.018;2023-04-29T21:39:18;34.67;;;22.23;;
31674;SDS011;18276;45.520;11.018;2023-04-29T21:41:45;34.90;;;22.70;;
31674;SDS011;18276;45.520;11.018;2023-04-29T21:44:12;35.70;;;22.55;;
31674;SDS011;18276;45.520;11.018;2023-04-29T21:46:39;35.20;;;22.30;;
31674;SDS011;18276;45.520;11.018;2023-04-29T21:49:06;37.17;;;23.38;;
31674;SDS011;18276;45.520;11.018;2023-04-29T21:51:34;35.08;;;22.23;;
31674;SDS011;18276;45.520;11.018;2023-04-29T21:54:01;34.42;;;23.23;;
31674;SDS011;18276;45.520;11.018;2023-04-29T21:56:34;35.42;;;23.17;;
31674;SDS011;18276;45.520;11.018;2023-04-29T21:59:01;42.72;;;25.00;;
31674;SDS011;18276;45.520;11.018;2023-04-29T22:01:28;38.35;;;23.15;;
31674;SDS011;18276;45.520;11.018;2023-04-29T22:04:10;38.47;;;23.00;;
31674;SDS011;18276;45.520;11.018;2023-04-29T22:06:37;37.38;;;22.52;;
31674;SDS011;18276;45.520;11.018;2023-04-29T22:09:04;37.45;;;23.15;;
31674;SDS011;18276;45.520;11.018;2023-04-29T22:11:32;35.22;;;22.35;;
31674;SDS011;18276;45.520;11.018;2023-04-29T22:13:59;37.53;;;23.55;;
31674;SDS011;18276;45.520;11.018;2023-04-29T22:16:26;34.75;;;22.30;;
31674;SDS011;18276;45.520;11.018;2023-04-29T22:18:53;39.22;;;23.33;;
31674;SDS011;18276;45.520;11.018;2023-04-29T22:21:22;37.25;;;22.90;;
31674;SDS011;18276;45.520;11.018;2023-04-29T22:23:49;36.42;;;22.73;;
31674;SDS011;18276;45.520;11.018;2023-04-29T22:26:17;38.17;;;24.15;;
31674;SDS011;18276;45.520;11.018;2023-04-29T22:28:44;37.40;;;23.55;;
31674;SDS011;18276;45.520;11.018;2023-04-29T22:31:11;38.47;;;23.95;;
31674;SDS011;18276;45.520;11.018;2023-04-29T22:33:38;37.88;;;22.58;;
31674;SDS011;18276;45.520;11.018;2023-04-29T22:36:05;41.03;;;23.35;;
31674;SDS011;18276;45.520;11.018;2023-04-29T22:38:32;38.85;;;23.90;;
31674;SDS011;18276;45.520;11.018;2023-04-29T22:41:00;40.25;;;23.52;;
31674;SDS011;18276;45.520;11.018;2023-04-29T22:43:27;33.10;;;21.73;;
31674;SDS011;18276;45.520;11.018;2023-04-29T22:45:54;38.50;;;23.75;;
31674;SDS011;18276;45.520;11.018;2023-04-29T22:48:22;34.45;;;23.23;;
31674;SDS011;18276;45.520;11.018;2023-04-29T22:50:53;36.95;;;24.27;;
31674;SDS011;18276;45.520;11.018;2023-04-29T22:53:22;36.90;;;23.30;;
31674;SDS011;18276;45.520;11.018;2023-04-29T22:58:20;35.83;;;23.52;;
31674;SDS011;18276;45.520;11.018;2023-04-29T23:00:50;37.78;;;23.85;;
31674;SDS011;18276;45.520;11.018;2023-04-29T23:03:19;38.63;;;24.45;;
31674;SDS011;18276;45.520;11.018;2023-04-29T23:05:46;37.67;;;23.67;;
31674;SDS011;18276;45.520;11.018;2023-04-29T23:08:14;34.92;;;21.67;;
31674;SDS011;18276;45.520;11.018;2023-04-29T23:10:45;34.13;;;22.98;;
31674;SDS011;18276;45.520;11.018;2023-04-29T23:13:15;38.25;;;23.58;;
31674;SDS011;18276;45.520;11.018;2023-04-29T23:15:42;33.90;;;22.02;;
31674;SDS011;18276;45.520;11.018;2023-04-29T23:18:09;34.53;;;22.88;;
31674;SDS011;18276;45.520;11.018;2023-04-29T23:20:37;37.25;;;23.65;;
31674;SDS011;18276;45.520;11.018;2023-04-29T23:23:04;41.20;;;23.50;;
31674;SDS011;18276;45.520;11.018;2023-04-29T23:25:31;37.63;;;23.33;;
31674;SDS011;18276;45.520;11.018;2023-04-29T23:27:58;40.60;;;23.90;;
31674;SDS011;18276;45.520;11.018;2023-04-29T23:30:25;36.97;;;23.70;;
31674;SDS011;18276;45.520;11.018;2023-04-29T23:32:52;33.10;;;22.42;;
31674;SDS011;18276;45.520;11.018;2023-04-29T23:35:19;33.13;;;21.45;;
31674;SDS011;18276;45.520;11.018;2023-04-29T23:37:46;37.15;;;23.08;;
31674;SDS011;18276;45.520;11.018;2023-04-29T23:40:13;34.25;;;22.70;;
31674;SDS011;18276;45.520;11.018;2023-04-29T23:42:43;36.72;;;23.00;;
31674;SDS011;18276;45.520;11.018;2023-04-29T23:45:10;34.70;;;21.92;;
31674;SDS011;18276;45.520;11.018;2023-04-29T23:47:37;32.80;;;21.88;;
31674;SDS011;18276;45.520;11.018;2023-04-29T23:50:04;37.08;;;23.08;;
31674;SDS011;18276;45.520;11.018;2023-04-29T23:52:32;36.15;;;23.17;;
31674;SDS011;18276;45.520;11.018;2023-04-29T23:54:59;32.40;;;21.98;;
31674;SDS011;18276;45.520;11.018;2023-04-29T23:57:26;37.85;;;22.20;;
31674;SDS011;18276;45.520;11.018;2023-04-29T23:59:53;38.17;;;23.35;;
